You are not logged in, Click here to log in
機場資訊:VYYY Welcome to Taiwan Airways 台灣虛擬航空
ICAO: VYYY Country: 緬甸仰光
Latitude: 16.9073 Longitude: 96.1332
Total Arrivals: 9 Total Departures: 14
Latest Arrival: FS69 (VDPP-VYYY)CHU. CHUHAO Latest Departure: MU2032 (VYYY-ZPPP)CHU. CHUHAO
Scenery:
METAR : VYYY 141800Z 01005KT 6000 BKN014 FEW020CB BKN100 25/23 Q1012 NOSIG

仰光國際機場RGN